Time;durP1;ratioP1;P1;durP2;ratioP2;P2;SDS_P1;SDS_P2;PMS_P1;PMS_P2;Temp;Humidity;BMP_temperature;BMP_pressure;BME280_temperature;BME280_humidity;BME280_pressure;Samples;Min_cycle;Max_cycle;Signal;HPM_P1;HPM_P2
2022/12/09 00:01:53;;;;;;;12.10;7.90;;;;;;;9.65;70.55;99719.78;4994237;28;20042;-77
2022/12/09 00:04:21;;;;;;;11.30;7.35;;;;;;;9.65;70.49;99714.47;4993935;28;20077;-78
2022/12/09 00:06:49;;;;;;;11.07;7.38;;;;;;;9.64;70.63;99718.94;4994505;28;20042;-78
2022/12/09 00:09:17;;;;;;;11.93;7.40;;;;;;;9.63;70.61;99714.56;4977071;28;20058;-78
2022/12/09 00:11:47;;;;;;;11.77;7.43;;;;;;;9.64;70.59;99712.75;4994136;28;20073;-79
2022/12/09 00:14:15;;;;;;;12.20;7.85;;;;;;;9.61;70.70;99711.16;4994328;28;20045;-79
2022/12/09 00:16:43;;;;;;;12.02;7.85;;;;;;;9.62;70.67;99702.22;4993845;28;20492;-79
2022/12/09 00:19:11;;;;;;;13.40;8.18;;;;;;;9.63;70.66;99700.41;4994075;28;20515;-78
2022/12/09 00:21:41;;;;;;;11.85;7.75;;;;;;;9.64;70.63;99710.94;4994219;28;20081;-78
2022/12/09 00:24:11;;;;;;;11.80;7.75;;;;;;;9.64;70.70;99715.41;4993770;28;20046;-78
2022/12/09 00:26:41;;;;;;;13.70;9.00;;;;;;;9.64;70.52;99726.94;4994085;28;20382;-78
2022/12/09 00:29:12;;;;;;;12.68;8.15;;;;;;;9.64;70.48;99739.38;4994014;28;20047;-79
2022/12/09 00:31:40;;;;;;;11.63;7.68;;;;;;;9.65;70.49;99735.75;4994050;28;20046;-77
2022/12/09 00:34:12;;;;;;;12.60;8.57;;;;;;;9.64;70.51;99737.56;4993574;28;20051;-78
2022/12/09 00:36:40;;;;;;;13.23;8.50;;;;;;;9.64;70.54;99747.38;4994035;28;20046;-77
2022/12/09 00:39:11;;;;;;;13.07;7.97;;;;;;;9.63;70.46;99738.53;4993329;28;20046;-77
2022/12/09 00:41:39;;;;;;;13.32;8.30;;;;;;;9.61;70.47;99740.44;4993899;28;20125;-78
2022/12/09 00:44:08;;;;;;;13.27;8.40;;;;;;;9.61;70.41;99732.47;4994289;28;20057;-79
2022/12/09 00:46:37;;;;;;;14.55;8.05;;;;;;;9.62;70.40;99742.16;4976563;28;20050;-79
2022/12/09 00:49:06;;;;;;;12.07;7.80;;;;;;;9.61;70.50;99739.59;4976573;28;20133;-78
2022/12/09 00:51:34;;;;;;;12.88;8.15;;;;;;;9.62;70.42;99733.31;4993751;28;20050;-77
2022/12/09 00:54:03;;;;;;;13.48;8.68;;;;;;;9.63;70.46;99729.69;4993791;28;20121;-76
2022/12/09 00:56:31;;;;;;;11.38;7.50;;;;;;;9.61;70.44;99729.78;4993660;28;20046;-77
2022/12/09 00:59:00;;;;;;;11.00;7.38;;;;;;;9.61;70.50;99723.63;4994258;28;20128;-77
2022/12/09 01:01:28;;;;;;;12.90;8.48;;;;;;;9.62;70.56;99725.31;4993803;28;20125;-76
2022/12/09 01:03:59;;;;;;;12.02;7.70;;;;;;;9.62;70.67;99728.84;4993647;28;20405;-77
2022/12/09 01:06:27;;;;;;;12.80;8.40;;;;;;;9.60;70.56;99740.56;4993992;28;20049;-77
2022/12/09 01:08:55;;;;;;;12.77;8.00;;;;;;;9.61;70.77;99737.78;4997605;28;20050;-76
2022/12/09 01:11:27;;;;;;;12.40;8.20;;;;;;;9.60;70.63;99730.75;4997219;28;20046;-77
2022/12/09 01:13:59;;;;;;;13.18;8.48;;;;;;;9.62;70.45;99734.16;4997213;28;20046;-77
2022/12/09 01:16:30;;;;;;;13.13;7.90;;;;;;;9.62;70.50;99733.31;4997473;28;20497;-79
2022/12/09 01:19:02;;;;;;;13.48;8.75;;;;;;;9.61;70.38;99744.91;4997543;28;20295;-79
2022/12/09 01:21:32;;;;;;;12.15;8.13;;;;;;;9.61;70.37;99742.25;4997247;28;20085;-79
2022/12/09 01:24:01;;;;;;;11.50;8.40;;;;;;;9.59;70.56;99739.69;4997061;28;20441;-78
2022/12/09 01:26:29;;;;;;;12.18;7.88;;;;;;;9.62;70.32;99744.81;4996941;28;20080;-79
2022/12/09 01:28:58;;;;;;;12.55;8.18;;;;;;;9.60;70.51;99736.06;4996890;28;20046;-79
2022/12/09 01:31:26;;;;;;;13.23;8.52;;;;;;;9.60;70.36;99730.75;4997000;28;20050;-78
2022/12/09 01:33:55;;;;;;;13.75;8.82;;;;;;;9.60;70.46;99735.22;4979581;28;20073;-79
2022/12/09 01:36:28;;;;;;;12.07;8.00;;;;;;;9.58;70.51;99730.00;4996717;28;20054;-77
2022/12/09 01:38:57;;;;;;;13.23;8.60;;;;;;;9.59;70.55;99726.38;4979087;28;20133;-78
2022/12/09 01:41:26;;;;;;;13.55;8.90;;;;;;;9.59;70.54;99722.88;4996511;28;20042;-77
2022/12/09 01:44:11;;;;;;;12.77;8.15;;;;;;;9.59;70.53;99715.72;5007140;28;20060;-76
2022/12/09 01:46:39;;;;;;;14.25;8.20;;;;;;;9.59;70.62;99723.72;5016197;28;20053;-76
2022/12/09 01:49:11;;;;;;;12.32;8.30;;;;;;;9.58;70.51;99711.38;5016147;28;20041;-76
2022/12/09 01:51:44;;;;;;;11.77;8.13;;;;;;;9.54;70.53;99709.84;5016097;28;20053;-78
2022/12/09 01:54:12;;;;;;;13.40;8.63;;;;;;;9.58;70.49;99705.19;5016011;28;20049;-77
2022/12/09 01:56:41;;;;;;;14.48;8.93;;;;;;;9.59;70.42;99714.88;5015687;28;20291;-78
2022/12/09 01:59:12;;;;;;;13.82;8.68;;;;;;;9.56;70.30;99715.94;5016072;28;20073;-77
2022/12/09 02:01:42;;;;;;;13.30;8.90;;;;;;;9.57;70.43;99714.97;5016232;28;20053;-77
2022/12/09 02:04:11;;;;;;;14.70;8.68;;;;;;;9.57;70.48;99714.97;5015959;28;20515;-76
2022/12/09 02:06:41;;;;;;;13.63;8.57;;;;;;;9.56;70.34;99721.25;5015684;28;20048;-76
2022/12/09 02:09:10;;;;;;;13.35;8.82;;;;;;;9.54;70.65;99720.47;5016089;28;20056;-77
2022/12/09 02:11:50;;;;;;;11.68;8.05;;;;;;;9.54;70.64;99720.47;4998109;28;20077;-78
2022/12/09 02:14:24;;;;;;;12.43;8.02;;;;;;;9.51;70.71;99715.38;5015607;28;20050;-78
2022/12/09 02:17:00;;;;;;;14.45;9.55;;;;;;;9.54;70.58;99725.81;5015262;28;20052;-79
2022/12/09 02:19:52;;;;;;;13.48;8.55;;;;;;;9.48;70.63;99704.94;5014889;28;20046;-79
2022/12/09 02:22:29;;;;;;;13.55;8.98;;;;;;;9.53;70.65;99705.47;4997965;28;20056;-78
2022/12/09 02:25:03;;;;;;;15.15;8.82;;;;;;;9.53;70.66;99713.47;4998058;28;20112;-77
2022/12/09 02:27:37;;;;;;;14.38;8.95;;;;;;;9.51;70.51;99704.72;5015729;28;20073;-76
2022/12/09 02:30:13;;;;;;;11.55;7.78;;;;;;;9.50;70.98;99705.69;4997967;28;20057;-77
2022/12/09 02:33:06;;;;;;;12.48;8.35;;;;;;;9.53;70.63;99701.94;5014964;28;20053;-78
2022/12/09 02:35:41;;;;;;;13.65;8.77;;;;;;;9.51;70.78;99695.88;5015480;28;20493;-78
2022/12/09 02:38:15;;;;;;;15.07;8.88;;;;;;;9.51;70.69;99690.56;4997957;28;20384;-79
2022/12/09 02:40:50;;;;;;;14.52;9.52;;;;;;;9.51;70.55;99696.72;5015432;28;20057;-79
2022/12/09 02:43:22;;;;;;;12.73;8.85;;;;;;;9.51;70.85;99693.22;5015887;28;20129;-77
2022/12/09 02:45:51;;;;;;;13.63;8.50;;;;;;;9.51;70.94;99693.22;5015065;28;20050;-78
2022/12/09 02:48:25;;;;;;;14.65;9.30;;;;;;;9.52;70.75;99702.91;5014740;28;20057;-79
2022/12/09 02:50:57;;;;;;;13.75;8.82;;;;;;;9.51;70.71;99695.88;5014746;28;20041;-77
2022/12/09 02:53:26;;;;;;;13.43;8.55;;;;;;;9.50;70.70;99700.34;5014916;28;20108;-78
2022/12/09 02:55:56;;;;;;;12.05;8.38;;;;;;;9.49;70.77;99690.66;5014821;28;20088;-79
2022/12/09 02:58:24;;;;;;;15.07;9.30;;;;;;;9.51;70.84;99682.56;5014916;28;20050;-80
2022/12/09 03:00:54;;;;;;;12.82;9.13;;;;;;;9.48;70.82;99680.97;5015007;28;20511;-77
2022/12/09 03:03:24;;;;;;;13.48;8.77;;;;;;;9.47;70.56;99676.59;5015006;28;20124;-79
2022/12/09 03:06:00;;;;;;;13.85;8.32;;;;;;;9.50;70.72;99683.53;5014659;28;20052;-79
2022/12/09 03:08:35;;;;;;;13.38;8.90;;;;;;;9.50;70.77;99684.38;5015047;28;20060;-79
2022/12/09 03:11:07;;;;;;;12.98;9.05;;;;;;;9.49;70.67;99680.00;5015030;28;20138;-79
2022/12/09 03:13:46;;;;;;;15.35;9.75;;;;;;;9.50;70.65;99680.88;5014441;28;20077;-77
2022/12/09 03:16:24;;;;;;;13.07;8.52;;;;;;;9.50;70.59;99673.72;5014227;28;20505;-78
2022/12/09 03:18:56;;;;;;;14.23;9.35;;;;;;;9.49;70.66;99669.34;5014552;28;20140;-79
2022/12/09 03:21:29;;;;;;;13.73;8.75;;;;;;;9.43;70.65;99670.59;5014157;28;20054;-78
2022/12/09 03:23:59;;;;;;;13.10;9.38;;;;;;;9.46;70.76;99685.53;5014605;28;20389;-78
2022/12/09 03:26:32;;;;;;;14.90;9.77;;;;;;;9.45;70.81;99700.63;5014812;28;20050;-77
2022/12/09 03:29:03;;;;;;;14.80;9.35;;;;;;;9.44;70.85;99698.06;5014743;28;20049;-78
2022/12/09 03:31:34;;;;;;;13.73;8.98;;;;;;;9.45;70.62;99702.44;5013617;28;20045;-77
2022/12/09 03:34:06;;;;;;;13.85;8.88;;;;;;;9.45;70.80;99705.09;4996987;28;20492;-78
2022/12/09 03:36:38;;;;;;;13.93;9.15;;;;;;;9.45;70.82;99699.78;5014047;28;20073;-77
2022/12/09 03:39:12;;;;;;;13.32;9.13;;;;;;;9.44;70.83;99684.75;5013732;28;20389;-76
2022/12/09 03:41:44;;;;;;;13.00;8.52;;;;;;;9.44;70.86;99692.75;5014067;28;20081;-80
2022/12/09 03:44:18;;;;;;;16.25;9.30;;;;;;;9.44;70.90;99698.06;5014186;28;20077;-78
2022/12/09 03:46:47;;;;;;;14.00;8.70;;;;;;;9.44;70.82;99696.25;5014059;28;20485;-80
2022/12/09 03:49:16;;;;;;;14.88;9.30;;;;;;;9.45;70.95;99694.44;5014189;28;20050;-79
2022/12/09 03:51:49;;;;;;;14.32;9.63;;;;;;;9.44;70.93;99682.09;5013690;28;20124;-79
2022/12/09 03:54:23;;;;;;;13.80;9.35;;;;;;;9.42;70.88;99681.34;5013917;28;20046;-79
2022/12/09 03:56:56;;;;;;;14.48;9.30;;;;;;;9.44;70.77;99698.91;5014030;28;20053;-79
2022/12/09 03:59:28;;;;;;;;;;;;;;;9.44;70.96;99695.41;5014410;28;20073;-76
2022/12/09 04:01:57;;;;;;;13.65;9.00;;;;;;;9.43;70.86;99699.03;5014159;28;19925;-76
2022/12/09 04:04:27;;;;;;;13.20;8.70;;;;;;;9.44;70.70;99692.75;5013833;28;20429;-80
2022/12/09 04:06:57;;;;;;;14.27;9.10;;;;;;;9.44;70.88;99692.75;5014230;28;20060;-78
2022/12/09 04:09:26;;;;;;;14.52;8.65;;;;;;;9.43;70.94;99681.25;5014019;28;20046;-77
2022/12/09 04:11:54;;;;;;;13.60;8.88;;;;;;;9.43;70.96;99680.41;5013389;28;20046;-78
2022/12/09 04:14:23;;;;;;;15.35;9.80;;;;;;;9.45;71.07;99681.16;5014446;28;20045;-77
2022/12/09 04:16:52;;;;;;;13.48;8.85;;;;;;;9.45;71.03;99683.81;5013750;28;20072;-77
2022/12/09 04:19:20;;;;;;;13.27;9.43;;;;;;;9.45;70.80;99667.84;4995999;28;20045;-78
2022/12/09 04:21:49;;;;;;;13.13;8.48;;;;;;;9.45;70.87;99667.84;5013265;28;20539;-79
2022/12/09 04:24:19;;;;;;;16.05;9.95;;;;;;;9.45;70.82;99673.16;5014101;28;20057;-79
2022/12/09 04:26:47;;;;;;;14.90;9.32;;;;;;;9.43;70.77;99659.94;5013567;28;20050;-79
2022/12/09 04:29:15;;;;;;;13.38;8.80;;;;;;;9.45;70.73;99662.50;5013276;28;20042;-78
2022/12/09 04:31:44;;;;;;;14.70;9.77;;;;;;;9.45;70.88;99668.69;5013551;28;20045;-79
2022/12/09 04:34:12;;;;;;;13.45;8.82;;;;;;;9.45;70.85;99663.34;4996040;28;20050;-77
2022/12/09 04:36:40;;;;;;;14.82;9.15;;;;;;;9.45;70.48;99667.84;5013154;28;20045;-78
2022/12/09 04:39:09;;;;;;;13.98;9.98;;;;;;;9.46;70.77;99666.91;5013385;28;20129;-77
2022/12/09 04:41:39;;;;;;;15.27;9.18;;;;;;;9.44;70.85;99661.66;5014034;28;20046;-77
2022/12/09 04:44:07;;;;;;;13.55;9.13;;;;;;;9.44;70.81;99660.81;5017736;28;20104;-77
2022/12/09 04:46:36;;;;;;;12.65;8.27;;;;;;;9.45;70.64;99663.34;5017195;28;20104;-78
2022/12/09 04:49:04;;;;;;;15.30;9.82;;;;;;;9.45;70.71;99657.19;4999710;28;20508;-78
2022/12/09 04:51:32;;;;;;;14.18;10.15;;;;;;;9.44;70.74;99650.16;4999148;28;20108;-78
2022/12/09 04:54:07;;;;;;;14.25;9.30;;;;;;;9.45;70.83;99660.69;5017654;28;20153;-79
2022/12/09 04:56:36;;;;;;;15.38;9.77;;;;;;;9.45;70.80;99665.16;4999382;28;20096;-79
2022/12/09 04:59:06;;;;;;;14.35;9.13;;;;;;;9.44;70.61;99660.81;5016712;28;20054;-78
2022/12/09 05:01:34;;;;;;;15.40;9.98;;;;;;;9.45;70.75;99662.50;5017379;28;20382;-79
2022/12/09 05:04:03;;;;;;;16.13;9.43;;;;;;;9.46;70.74;99664.25;5016909;28;20485;-79
2022/12/09 05:06:33;;;;;;;15.20;9.50;;;;;;;9.46;70.75;99661.59;5016970;28;20401;-79
2022/12/09 05:09:02;;;;;;;14.30;9.25;;;;;;;9.45;70.83;99663.34;4999255;28;20052;-77
2022/12/09 05:11:30;;;;;;;13.65;8.90;;;;;;;9.45;70.68;99662.50;4999381;28;20046;-78
2022/12/09 05:13:59;;;;;;;13.55;8.80;;;;;;;9.45;70.77;99654.53;5017515;28;20358;-78
2022/12/09 05:16:29;;;;;;;13.60;8.90;;;;;;;9.46;70.77;99653.59;5016580;28;20512;-78
2022/12/09 05:18:59;;;;;;;13.68;9.25;;;;;;;9.42;70.77;99652.06;5017485;28;20046;-77
2022/12/09 05:21:28;;;;;;;13.52;9.13;;;;;;;9.43;70.90;99665.28;5016714;28;20069;-78
2022/12/09 05:23:57;;;;;;;16.00;9.27;;;;;;;9.42;70.89;99674.22;5016581;28;20104;-79
2022/12/09 05:26:25;;;;;;;16.25;10.25;;;;;;;9.43;70.91;99672.41;5016827;28;20130;-79
2022/12/09 05:28:55;;;;;;;14.90;9.38;;;;;;;9.42;70.92;99668.03;5016390;28;20081;-79
2022/12/09 05:31:24;;;;;;;14.88;9.15;;;;;;;9.41;70.95;99666.34;5016691;28;20045;-79
2022/12/09 05:33:53;;;;;;;15.07;9.82;;;;;;;9.42;70.88;99662.72;5016281;28;20046;-79
2022/12/09 05:36:24;;;;;;;13.18;8.90;;;;;;;9.43;70.96;99664.41;5016227;28;20042;-78
2022/12/09 05:38:53;;;;;;;16.38;10.57;;;;;;;9.42;70.98;99668.88;5016025;28;20084;-78
2022/12/09 05:41:23;;;;;;;13.32;9.23;;;;;;;9.42;70.95;99657.41;5016042;28;20054;-79
2022/12/09 05:43:52;;;;;;;15.73;10.02;;;;;;;9.42;70.95;99649.41;5015847;28;20052;-79
2022/12/09 05:46:21;;;;;;;14.13;9.63;;;;;;;9.42;70.97;99652.06;5016190;28;20439;-79
2022/12/09 05:48:50;;;;;;;14.60;9.55;;;;;;;9.41;70.92;99647.69;5016078;28;20395;-79
2022/12/09 05:51:23;;;;;;;15.27;10.07;;;;;;;9.43;70.93;99643.13;5016209;28;20076;-79
2022/12/09 05:53:53;;;;;;;15.18;9.60;;;;;;;9.42;71.05;99636.94;5014958;28;20052;-78
2022/12/09 05:56:23;;;;;;;14.75;9.68;;;;;;;9.41;70.82;99639.72;5015850;28;20153;-79
2022/12/09 05:58:53;;;;;;;14.00;9.00;;;;;;;9.42;70.97;99639.59;5016656;28;20069;-79
2022/12/09 06:01:23;;;;;;;15.05;9.90;;;;;;;9.40;70.96;99630.03;5016038;28;20485;-76
2022/12/09 06:03:53;;;;;;;13.90;9.88;;;;;;;9.43;71.03;99635.13;5016627;28;20054;-77
2022/12/09 06:06:28;;;;;;;15.52;9.98;;;;;;;9.43;71.03;99635.13;5016013;28;20042;-77
2022/12/09 06:08:59;;;;;;;14.77;9.50;;;;;;;9.42;70.89;99630.78;5016125;28;20417;-76
2022/12/09 06:11:28;;;;;;;14.60;9.68;;;;;;;9.42;70.98;99628.97;5015415;28;20128;-76
2022/12/09 06:13:57;;;;;;;14.90;9.35;;;;;;;9.43;71.06;99632.47;5015584;28;20407;-77
2022/12/09 06:16:26;;;;;;;15.15;10.00;;;;;;;9.46;70.98;99637.63;5015086;28;20075;-77
2022/12/09 06:18:55;;;;;;;13.85;8.95;;;;;;;9.45;70.77;99631.41;5015522;28;20117;-79
2022/12/09 06:21:25;;;;;;;15.38;10.23;;;;;;;9.46;70.86;99632.31;5015314;28;20080;-77
2022/12/09 06:23:54;;;;;;;15.02;9.70;;;;;;;9.46;70.79;99624.31;5015496;28;20046;-79
2022/12/09 06:26:24;;;;;;;15.23;9.82;;;;;;;9.46;70.87;99627.84;5015355;28;20049;-77
2022/12/09 06:28:54;;;;;;;14.38;9.70;;;;;;;9.46;70.91;99626.97;5015064;28;20173;-78
2022/12/09 06:31:23;;;;;;;16.00;10.38;;;;;;;9.48;70.97;99624.22;5014789;28;20046;-76
2022/12/09 06:33:53;;;;;;;15.18;9.70;;;;;;;9.47;70.85;99626.03;4996803;28;20045;-77
2022/12/09 06:36:27;;;;;;;14.90;9.65;;;;;;;9.44;70.79;99624.38;5014843;28;20057;-77
2022/12/09 06:39:02;;;;;;;15.32;9.40;;;;;;;9.43;71.02;99619.16;5015327;28;20141;-77
2022/12/09 06:41:39;;;;;;;15.90;10.05;;;;;;;9.43;71.11;99627.16;5015007;28;20464;-77
2022/12/09 06:44:08;;;;;;;15.20;10.57;;;;;;;9.43;71.00;99627.16;5015053;28;20046;-78
2022/12/09 06:46:36;;;;;;;15.73;10.25;;;;;;;9.42;71.07;99618.31;5014853;28;20041;-78
2022/12/09 06:49:05;;;;;;;15.13;10.35;;;;;;;9.42;71.08;99626.31;5015101;28;20050;-78
2022/12/09 06:51:35;;;;;;;15.18;9.85;;;;;;;9.44;71.08;99626.19;5014856;28;20481;-78
2022/12/09 06:54:05;;;;;;;14.98;9.93;;;;;;;9.44;71.01;99631.53;5014882;28;20049;-78
2022/12/09 06:56:34;;;;;;;14.07;9.70;;;;;;;9.43;71.22;99627.16;4997175;28;20481;-78
2022/12/09 06:59:06;;;;;;;15.93;10.38;;;;;;;9.43;71.02;99622.69;4997104;28;20077;-78
2022/12/09 07:01:36;;;;;;;16.87;10.13;;;;;;;9.45;71.07;99627.91;5011038;28;20046;-78
2022/12/09 07:04:06;;;;;;;15.70;10.27;;;;;;;9.44;71.05;99619.06;4996215;28;20512;-78
2022/12/09 07:06:38;;;;;;;15.52;9.82;;;;;;;9.45;71.14;99619.91;5014516;28;20050;-77
2022/12/09 07:09:10;;;;;;;16.00;9.85;;;;;;;9.44;71.09;99618.22;5014774;28;20046;-77
2022/12/09 07:11:41;;;;;;;16.98;10.55;;;;;;;9.45;70.92;99619.91;5014652;28;20053;-77
2022/12/09 07:14:10;;;;;;;14.88;9.75;;;;;;;9.44;71.20;99623.53;5014503;28;20062;-78
2022/12/09 07:16:38;;;;;;;17.38;10.43;;;;;;;9.44;71.14;99613.75;5014040;28;20049;-78
2022/12/09 07:19:07;;;;;;;16.00;10.00;;;;;;;9.44;71.04;99603.09;5014326;28;20516;-78
2022/12/09 07:21:38;;;;;;;15.52;9.85;;;;;;;9.45;71.17;99604.78;5014456;28;20088;-78
2022/12/09 07:24:07;;;;;;;15.52;9.77;;;;;;;9.45;71.10;99604.78;5014211;28;20054;-77
2022/12/09 07:26:36;;;;;;;15.23;9.73;;;;;;;9.46;71.08;99605.69;5014047;28;20120;-78
2022/12/09 07:29:06;;;;;;;15.35;9.80;;;;;;;9.47;71.06;99602.06;5014233;28;20046;-78
2022/12/09 07:31:35;;;;;;;17.38;10.70;;;;;;;9.46;70.96;99606.53;5010238;28;20057;-78
2022/12/09 07:34:05;;;;;;;15.25;10.15;;;;;;;9.46;71.13;99609.19;4997065;28;20052;-76
2022/12/09 07:36:36;;;;;;;15.38;10.05;;;;;;;9.46;71.12;99605.69;5013927;28;20042;-77
2022/12/09 07:39:11;;;;;;;15.18;10.45;;;;;;;9.29;70.99;99581.97;4996657;28;20076;-77
2022/12/09 07:41:39;;;;;;;18.05;10.50;;;;;;;9.47;71.08;99607.38;4997931;28;20128;-77
2022/12/09 07:44:09;;;;;;;15.30;9.85;;;;;;;9.48;71.13;99610.91;5011609;28;20052;-77
2022/12/09 07:46:38;;;;;;;16.05;10.32;;;;;;;9.46;71.35;99614.53;5016851;28;20049;-77
2022/12/09 07:49:08;;;;;;;15.60;9.80;;;;;;;9.48;71.13;99608.25;5018325;28;20048;-77
2022/12/09 07:51:37;;;;;;;15.98;10.07;;;;;;;9.46;71.17;99611.00;5017354;28;20050;-76
2022/12/09 07:54:06;;;;;;;16.85;10.63;;;;;;;9.46;71.38;99603.03;4995806;28;20493;-78
2022/12/09 07:56:35;;;;;;;14.70;9.90;;;;;;;9.50;71.22;99603.66;4995046;28;20046;-76
2022/12/09 07:59:06;;;;;;;17.73;10.55;;;;;;;9.44;71.27;99595.09;5001896;28;20074;-76
2022/12/09 08:01:35;;;;;;;15.20;9.95;;;;;;;9.50;71.21;99603.66;4993139;28;20049;-76
2022/12/09 08:04:06;;;;;;;15.27;10.27;;;;;;;9.50;71.21;99595.66;4992873;28;20042;-76
2022/12/09 08:06:35;;;;;;;16.05;10.02;;;;;;;9.51;71.19;99608.88;4995937;28;20412;-76
2022/12/09 08:09:07;;;;;;;15.80;9.90;;;;;;;9.49;71.14;99593.97;5013859;28;20046;-76
2022/12/09 08:11:40;;;;;;;19.25;10.63;;;;;;;9.50;71.30;99591.19;5013994;28;20050;-78
2022/12/09 08:14:12;;;;;;;16.17;10.25;;;;;;;9.52;71.28;99591.09;5014118;28;20072;-79
2022/12/09 08:16:42;;;;;;;15.07;9.77;;;;;;;9.52;71.20;99589.28;5014728;28;20056;-76
2022/12/09 08:19:11;;;;;;;13.30;9.43;;;;;;;9.52;71.30;99583.97;5018145;28;20046;-77
2022/12/09 08:21:40;;;;;;;16.55;9.85;;;;;;;9.52;71.29;99578.63;5017853;28;20038;-78
2022/12/09 08:24:12;;;;;;;14.85;9.70;;;;;;;9.53;71.20;99583.00;5018088;28;20045;-76
2022/12/09 08:26:43;;;;;;;15.38;9.23;;;;;;;9.54;71.18;99583.84;5017930;28;20100;-77
2022/12/09 08:29:13;;;;;;;17.73;10.23;;;;;;;9.52;71.26;99567.97;5000171;28;20057;-77
2022/12/09 08:31:43;;;;;;;15.55;9.52;;;;;;;9.54;71.42;99583.84;5017798;28;20057;-78
2022/12/09 08:34:13;;;;;;;14.43;9.40;;;;;;;9.55;71.33;99577.56;5017175;28;20501;-78
2022/12/09 08:36:42;;;;;;;15.30;9.65;;;;;;;9.55;71.35;99572.25;5017684;28;20133;-78
2022/12/09 08:39:13;;;;;;;17.45;10.60;;;;;;;9.55;71.49;99573.09;4999569;28;20046;-77
2022/12/09 08:41:43;;;;;;;15.07;10.15;;;;;;;9.54;71.41;99563.41;5017566;28;20440;-75
2022/12/09 08:44:14;;;;;;;14.82;9.88;;;;;;;9.56;71.25;99560.66;5017716;28;20132;-77
2022/12/09 08:46:45;;;;;;;15.07;9.45;;;;;;;9.56;71.38;99558.84;5017794;28;20100;-78
2022/12/09 08:49:16;;;;;;;13.82;9.20;;;;;;;9.57;71.29;99560.56;5017173;28;20038;-78
2022/12/09 08:51:47;;;;;;;14.18;8.77;;;;;;;9.57;71.59;99562.38;4999496;28;20448;-78
2022/12/09 08:54:17;;;;;;;16.23;9.32;;;;;;;9.57;71.49;99560.56;5016964;28;20540;-78
2022/12/09 08:56:47;;;;;;;15.77;9.82;;;;;;;9.58;71.49;99556.94;5016647;28;20512;-78
2022/12/09 08:59:16;;;;;;;16.17;9.95;;;;;;;9.58;71.54;99551.63;5016643;28;20497;-78
2022/12/09 09:01:45;;;;;;;14.68;9.52;;;;;;;9.59;71.34;99547.13;5016842;28;20057;-78
2022/12/09 09:04:16;;;;;;;13.65;9.10;;;;;;;9.59;71.50;99540.00;5016700;28;20125;-77
2022/12/09 09:06:48;;;;;;;13.30;8.95;;;;;;;9.59;71.52;99540.00;5016856;28;20141;-78
2022/12/09 09:09:20;;;;;;;14.13;9.32;;;;;;;9.60;71.60;99538.19;5017324;28;20100;-77
2022/12/09 09:11:49;;;;;;;15.52;9.43;;;;;;;9.61;71.58;99534.56;4999282;28;20054;-78
2022/12/09 09:14:18;;;;;;;14.10;9.00;;;;;;;9.61;71.58;99529.25;5016855;28;20081;-77
2022/12/09 09:16:46;;;;;;;16.58;9.65;;;;;;;9.61;71.58;99524.75;5016597;28;20061;-76
2022/12/09 09:19:17;;;;;;;15.63;8.88;;;;;;;9.61;71.61;99523.91;5016659;28;20096;-78
2022/12/09 09:21:46;;;;;;;14.18;8.93;;;;;;;9.58;71.66;99511.66;5017463;28;20473;-77
2022/12/09 09:24:16;;;;;;;14.57;9.27;;;;;;;9.63;71.71;99517.53;5016548;28;20132;-77
2022/12/09 09:26:48;;;;;;;13.45;8.32;;;;;;;9.63;71.77;99512.19;5016290;28;20405;-75
2022/12/09 09:29:18;;;;;;;14.25;8.50;;;;;;;9.61;71.74;99507.94;5016257;28;20081;-78
2022/12/09 09:31:48;;;;;;;17.23;10.05;;;;;;;9.64;71.56;99519.22;4999032;28;20046;-77
2022/12/09 09:34:17;;;;;;;15.05;9.43;;;;;;;9.63;71.74;99520.19;5016555;28;20050;-78
2022/12/09 09:36:47;;;;;;;14.50;9.43;;;;;;;9.63;71.68;99511.34;5015799;28;20124;-77
2022/12/09 09:39:15;;;;;;;14.68;9.30;;;;;;;9.64;71.68;99508.56;5015933;28;20447;-76
2022/12/09 09:41:51;;;;;;;13.75;8.57;;;;;;;9.65;71.95;99504.97;5015795;28;20041;-78
2022/12/09 09:44:25;;;;;;;13.90;8.80;;;;;;;9.65;71.95;99499.66;5015979;28;20049;-78
2022/12/09 09:46:55;;;;;;;14.48;8.90;;;;;;;9.63;71.78;99500.69;5016378;28;20042;-78
2022/12/09 09:49:30;;;;;;;12.45;8.50;;;;;;;9.65;71.94;99502.31;5016087;28;20045;-78
2022/12/09 09:52:06;;;;;;;13.65;9.25;;;;;;;9.59;72.16;99484.09;5015782;28;20049;-78
2022/12/09 09:54:36;;;;;;;14.68;9.05;;;;;;;9.65;71.83;99494.34;5016120;28;20096;-78
2022/12/09 09:57:14;;;;;;;14.35;8.63;;;;;;;9.67;71.87;99491.56;5015740;28;20042;-78
2022/12/09 10:00:02;;;;;;;14.70;8.45;;;;;;;9.66;71.78;99490.72;5015797;28;20113;-76
2022/12/09 10:02:57;;;;;;;13.00;8.50;;;;;;;9.65;71.78;99483.69;5015871;28;20439;-78
2022/12/09 10:05:30;;;;;;;12.93;8.68;;;;;;;9.68;71.93;99482.59;5015825;28;20128;-77
2022/12/09 10:08:15;;;;;;;14.25;8.75;;;;;;;9.67;71.80;99465.78;5015959;28;20049;-77
2022/12/09 10:10:55;;;;;;;12.85;8.57;;;;;;;9.68;71.67;99462.16;5015967;28;20073;-76
2022/12/09 10:13:39;;;;;;;13.82;8.23;;;;;;;9.68;71.87;99451.50;5015627;28;20049;-77
2022/12/09 10:16:14;;;;;;;14.73;8.63;;;;;;;9.66;71.98;99441.94;5015737;28;20046;-78
2022/12/09 10:18:56;;;;;;;13.77;8.55;;;;;;;9.68;71.86;99435.53;5015166;28;20550;-77
2022/12/09 10:21:36;;;;;;;12.15;8.48;;;;;;;9.68;72.04;99432.00;4997892;28;20492;-78
2022/12/09 10:24:18;;;;;;;14.73;8.48;;;;;;;9.70;71.80;99414.13;5015177;28;20041;-77
2022/12/09 10:26:56;;;;;;;14.60;8.83;;;;;;;9.73;71.91;99421.88;5015761;28;20054;-78
2022/12/09 10:29:39;;;;;;;15.00;9.43;;;;;;;9.73;71.91;99409.41;5015188;28;20049;-76
2022/12/09 10:32:14;;;;;;;14.50;8.68;;;;;;;9.73;71.82;99390.78;4997362;28;20129;-76
2022/12/09 10:34:43;;;;;;;13.75;8.68;;;;;;;9.71;71.90;99395.38;5015164;28;20058;-76
2022/12/09 10:37:24;;;;;;;12.85;7.78;;;;;;;9.74;71.86;99389.81;5016108;28;20050;-78
2022/12/09 10:39:59;;;;;;;11.85;7.93;;;;;;;9.73;71.87;99374.78;5018198;28;20084;-76
2022/12/09 10:45:16;;;;;;;13.48;8.27;;;;;;;9.74;71.95;99360.50;5016641;28;20083;-77
2022/12/09 10:47:50;;;;;;;13.73;8.07;;;;;;;9.74;71.96;99357.84;5014951;28;20083;-78
2022/12/09 10:50:30;;;;;;;12.75;8.40;;;;;;;9.75;71.97;99346.28;5015300;28;20104;-76
2022/12/09 10:53:05;;;;;;;13.85;8.20;;;;;;;9.75;71.88;99335.63;5016434;28;20088;-76
2022/12/09 10:55:37;;;;;;;12.40;8.13;;;;;;;9.75;71.99;99340.94;5016230;28;20057;-77
2022/12/09 10:58:17;;;;;;;12.30;8.00;;;;;;;9.77;72.06;99329.31;5017377;28;20042;-75
2022/12/09 11:01:05;;;;;;;12.93;8.40;;;;;;;9.76;72.02;99320.50;5015045;28;20092;-76
2022/12/09 11:03:37;;;;;;;11.68;8.00;;;;;;;9.74;71.98;99307.25;5014862;28;20042;-77
2022/12/09 11:06:18;;;;;;;13.73;8.07;;;;;;;9.73;72.27;99321.53;4997468;28;20108;-77
2022/12/09 11:08:52;;;;;;;13.13;8.48;;;;;;;9.72;72.31;99325.16;5014803;28;20093;-77
2022/12/09 11:11:39;;;;;;;11.95;7.65;;;;;;;9.73;72.27;99324.19;5015143;28;20057;-77
2022/12/09 11:14:22;;;;;;;12.70;7.75;;;;;;;9.73;72.17;99307.38;5015719;28;20100;-78
2022/12/09 11:16:55;;;;;;;12.20;7.65;;;;;;;9.73;72.26;99305.56;5014854;28;20416;-77
2022/12/09 11:19:33;;;;;;;11.70;7.40;;;;;;;9.72;72.21;99282.56;5016388;28;20411;-77
2022/12/09 11:22:22;;;;;;;12.13;7.40;;;;;;;9.74;72.34;99283.28;5014936;28;20488;-77
2022/12/09 11:24:54;;;;;;;11.15;7.32;;;;;;;9.73;72.28;99284.25;5015052;28;20049;-77
2022/12/09 11:27:29;;;;;;;11.57;7.22;;;;;;;9.74;72.05;99282.44;5016198;28;20050;-77
2022/12/09 11:30:13;;;;;;;11.93;7.68;;;;;;;9.76;72.20;99285.88;5014804;28;20096;-77
2022/12/09 11:32:59;;;;;;;12.95;7.53;;;;;;;9.75;72.09;99289.50;5014445;28;20495;-77
2022/12/09 11:35:36;;;;;;;13.80;8.32;;;;;;;9.73;72.43;99283.41;5014322;28;20073;-77
2022/12/09 11:38:17;;;;;;;11.75;7.15;;;;;;;9.77;72.34;99292.03;4996283;28;20076;-77
2022/12/09 11:41:00;;;;;;;11.52;7.38;;;;;;;9.74;72.37;99280.63;5013653;28;20065;-77
2022/12/09 11:43:36;;;;;;;13.05;7.75;;;;;;;9.76;72.20;99285.88;5014272;28;20042;-77
2022/12/09 11:46:22;;;;;;;11.27;6.97;;;;;;;9.74;72.33;99277.13;5015492;28;20042;-75
2022/12/09 11:48:56;;;;;;;14.30;7.57;;;;;;;9.77;72.32;99271.59;5014596;28;20081;-77
2022/12/09 11:51:29;;;;;;;12.77;7.85;;;;;;;9.77;72.35;99260.09;5012910;28;20057;-77
2022/12/09 11:54:01;;;;;;;12.23;6.93;;;;;;;9.77;72.52;99257.41;5013630;28;20117;-77
2022/12/09 11:56:32;;;;;;;12.73;7.05;;;;;;;9.77;72.48;99257.41;5014156;28;20080;-77